Time;durP1;ratioP1;P1;durP2;ratioP2;P2;SDS_P1;SDS_P2;PMS_P1;PMS_P2;Temp;Humidity;BMP_temperature;BMP_pressure;BME280_temperature;BME280_humidity;BME280_pressure;Samples;Min_cycle;Max_cycle;Signal;HPM_P1;HPM_P2
2023/01/21 00:00:57;;;;;;;23.38;19.73;;;;;;;;;;10135976;28;20111;-66
2023/01/21 00:05:52;;;;;;;20.98;18.80;;;;;;;;;;10149994;28;20044;-66
2023/01/21 00:10:45;;;;;;;24.10;18.27;;;;;;;;;;10149221;28;20049;-68
2023/01/21 00:15:39;;;;;;;20.17;17.38;;;;;;;;;;10136129;28;20413;-67
2023/01/21 00:20:33;;;;;;;23.48;20.83;;;;;;;;;;10141047;28;20052;-67
2023/01/21 00:25:26;;;;;;;19.90;17.50;;;;;;;;;;10134994;28;20045;-67
2023/01/21 00:30:20;;;;;;;21.83;18.98;;;;;;;;;;10130029;28;20052;-67
2023/01/21 00:35:15;;;;;;;22.67;19.73;;;;;;;;;;10129294;28;20055;-67
2023/01/21 00:40:10;;;;;;;22.33;19.15;;;;;;;;;;10128296;28;20409;-67
2023/01/21 00:45:06;;;;;;;22.85;18.80;;;;;;;;;;10134090;28;20437;-67
2023/01/21 00:50:00;;;;;;;21.25;18.42;;;;;;;;;;10127427;28;20059;-67
2023/01/21 00:54:56;;;;;;;21.75;18.80;;;;;;;;;;10121656;28;20537;-67
2023/01/21 00:59:50;;;;;;;23.08;19.77;;;;;;;;;;10128931;28;20091;-67
2023/01/21 01:04:44;;;;;;;20.38;18.15;;;;;;;;;;10142867;28;20045;-67
2023/01/21 01:09:39;;;;;;;21.08;17.77;;;;;;;;;;10136727;28;20041;-66
2023/01/21 01:14:33;;;;;;;20.58;17.30;;;;;;;;;;10138004;28;20049;-67
2023/01/21 01:19:27;;;;;;;23.75;18.67;;;;;;;;;;10138469;28;20049;-67
2023/01/21 01:24:21;;;;;;;20.55;17.40;;;;;;;;;;10135140;28;20063;-67
2023/01/21 01:29:15;;;;;;;24.20;19.30;;;;;;;;;;10131941;28;20072;-67
2023/01/21 01:34:09;;;;;;;21.17;17.48;;;;;;;;;;10133228;28;20078;-67
2023/01/21 01:39:03;;;;;;;19.73;17.27;;;;;;;;;;10126570;28;20045;-67
2023/01/21 01:44:35;;;;;;;19.80;17.05;;;;;;;;;;10138743;28;20044;-67
2023/01/21 01:49:28;;;;;;;24.02;18.25;;;;;;;;;;10122306;28;20052;-67
2023/01/21 01:54:26;;;;;;;21.90;17.90;;;;;;;;;;10139480;28;20070;-67
2023/01/21 01:59:19;;;;;;;23.23;16.98;;;;;;;;;;10133423;28;20049;-67
2023/01/21 02:04:17;;;;;;;22.08;19.67;;;;;;;;;;10131710;28;20056;-67
2023/01/21 02:09:11;;;;;;;22.70;19.13;;;;;;;;;;10106611;28;20068;-67
2023/01/21 02:14:04;;;;;;;21.73;18.77;;;;;;;;;;10122689;28;20131;-67
2023/01/21 02:19:30;;;;;;;24.13;21.48;;;;;;;;;;10135710;28;20064;-67
2023/01/21 02:24:57;;;;;;;22.60;20.23;;;;;;;;;;10122369;28;20057;-67
2023/01/21 02:30:19;;;;;;;26.08;20.35;;;;;;;;;;10126755;28;20045;-67
2023/01/21 02:35:35;;;;;;;23.42;20.30;;;;;;;;;;10106818;28;20073;-67
2023/01/21 02:40:37;;;;;;;21.65;18.98;;;;;;;;;;10133816;28;20055;-66
2023/01/21 02:45:47;;;;;;;23.33;20.23;;;;;;;;;;10137795;28;20158;-67
2023/01/21 02:50:43;;;;;;;;;;;;;;;;;;10122345;28;20087;-64
2023/01/21 02:55:37;;;;;;;26.17;20.90;;;;;;;;;;10113197;28;20011;-66
2023/01/21 03:00:45;;;;;;;24.70;19.57;;;;;;;;;;10148992;28;20397;-66
2023/01/21 03:06:17;;;;;;;24.95;20.40;;;;;;;;;;10156556;28;20045;-66
2023/01/21 03:11:18;;;;;;;24.35;20.83;;;;;;;;;;10116193;28;20041;-66
2023/01/21 03:21:27;;;;;;;24.98;19.67;;;;;;;;;;10155503;28;20051;-66
2023/01/21 03:26:31;;;;;;;25.77;19.92;;;;;;;;;;10146700;28;20552;-66
2023/01/21 03:31:27;;;;;;;21.90;19.27;;;;;;;;;;10110417;28;20112;-67
2023/01/21 03:36:33;;;;;;;24.50;19.35;;;;;;;;;;10134662;28;20509;-66
2023/01/21 03:41:32;;;;;;;23.23;20.60;;;;;;;;;;10116498;28;20531;-66
2023/01/21 03:46:50;;;;;;;21.83;19.57;;;;;;;;;;10136032;28;20132;-66
2023/01/21 03:51:50;;;;;;;21.27;19.10;;;;;;;;;;10164272;28;20109;-66
2023/01/21 03:56:44;;;;;;;20.23;18.10;;;;;;;;;;10150226;28;20124;-66
2023/01/21 04:01:40;;;;;;;20.45;18.17;;;;;;;;;;10119095;28;20052;-67
2023/01/21 04:06:34;;;;;;;20.90;18.60;;;;;;;;;;10152637;28;20056;-66
2023/01/21 04:11:28;;;;;;;19.35;17.20;;;;;;;;;;10141715;28;20047;-67
2023/01/21 04:16:21;;;;;;;21.33;18.40;;;;;;;;;;10149970;28;20465;-66
2023/01/21 04:21:15;;;;;;;19.85;15.68;;;;;;;;;;10129830;28;20049;-67
2023/01/21 04:26:08;;;;;;;18.15;15.85;;;;;;;;;;10162004;28;20051;-66
2023/01/21 04:31:02;;;;;;;16.92;15.20;;;;;;;;;;10150077;28;20045;-66
2023/01/21 04:35:59;;;;;;;14.98;13.38;;;;;;;;;;10123455;28;20106;-67
2023/01/21 04:40:53;;;;;;;15.85;14.25;;;;;;;;;;10146016;28;20047;-66
2023/01/21 04:45:48;;;;;;;16.15;14.43;;;;;;;;;;10160315;28;20065;-66
2023/01/21 04:50:41;;;;;;;15.70;13.02;;;;;;;;;;10144213;28;20051;-67
2023/01/21 04:55:36;;;;;;;15.13;13.52;;;;;;;;;;10141913;28;20060;-67
2023/01/21 05:00:29;;;;;;;15.02;13.38;;;;;;;;;;10150403;28;20060;-67
2023/01/21 05:05:23;;;;;;;14.90;12.07;;;;;;;;;;10155564;28;20125;-66
2023/01/21 05:10:17;;;;;;;17.70;12.55;;;;;;;;;;10139459;28;20088;-67
2023/01/21 05:15:11;;;;;;;13.80;11.75;;;;;;;;;;10149820;28;20082;-66
2023/01/21 05:20:06;;;;;;;13.52;12.18;;;;;;;;;;10149637;28;20132;-65
2023/01/21 05:24:59;;;;;;;16.52;13.20;;;;;;;;;;10126983;28;20053;-65
2023/01/21 05:29:53;;;;;;;12.95;11.63;;;;;;;;;;10138163;28;20136;-65
2023/01/21 05:34:47;;;;;;;13.98;11.15;;;;;;;;;;10120904;28;20132;-66
2023/01/21 05:39:41;;;;;;;13.07;11.43;;;;;;;;;;10172796;28;20048;-66
2023/01/21 05:44:35;;;;;;;20.17;10.55;;;;;;;;;;10154926;28;20488;-66
2023/01/21 05:49:28;;;;;;;14.63;11.75;;;;;;;;;;10146481;28;20044;-65
2023/01/21 05:54:22;;;;;;;13.00;10.77;;;;;;;;;;10166487;28;20052;-66
2023/01/21 05:59:15;;;;;;;12.07;9.75;;;;;;;;;;10148101;28;20079;-66
2023/01/21 06:04:09;;;;;;;12.63;10.55;;;;;;;;;;10132054;28;20074;-65
2023/01/21 06:09:02;;;;;;;11.60;9.65;;;;;;;;;;10164987;28;20042;-65
2023/01/21 06:13:56;;;;;;;13.40;11.68;;;;;;;;;;10158460;28;20051;-65
2023/01/21 06:18:49;;;;;;;11.02;9.48;;;;;;;;;;10139520;28;20475;-65
2023/01/21 06:23:43;;;;;;;17.33;9.52;;;;;;;;;;10124569;28;20557;-65
2023/01/21 06:28:36;;;;;;;10.82;9.30;;;;;;;;;;10133680;28;20136;-66
2023/01/21 06:33:29;;;;;;;9.85;8.73;;;;;;;;;;10126450;28;20094;-66
2023/01/21 06:38:23;;;;;;;10.25;8.50;;;;;;;;;;10115328;28;20055;-66
2023/01/21 06:43:16;;;;;;;11.30;9.70;;;;;;;;;;10163251;28;20044;-65
2023/01/21 06:48:10;;;;;;;11.43;9.57;;;;;;;;;;10157684;28;20052;-66
2023/01/21 06:53:04;;;;;;;12.30;10.30;;;;;;;;;;10152966;28;20119;-65
2023/01/21 06:57:57;;;;;;;10.63;9.27;;;;;;;;;;10164503;28;20160;-65
2023/01/21 07:02:57;;;;;;;10.35;8.85;;;;;;;;;;10162967;28;20050;-66
2023/01/21 07:07:54;;;;;;;10.13;8.18;;;;;;;;;;10169372;28;20093;-66
2023/01/21 07:12:48;;;;;;;14.25;8.02;;;;;;;;;;10165513;28;20055;-67
2023/01/21 07:17:41;;;;;;;12.02;9.55;;;;;;;;;;10158331;28;20040;-65
2023/01/21 07:22:35;;;;;;;9.57;8.25;;;;;;;;;;10149582;28;20083;-68
2023/01/21 07:27:29;;;;;;;13.38;8.52;;;;;;;;;;10134582;28;20064;-68
2023/01/21 07:32:23;;;;;;;11.40;9.30;;;;;;;;;;10144049;28;20056;-67
2023/01/21 07:37:16;;;;;;;12.55;9.00;;;;;;;;;;10144129;28;20064;-67
2023/01/21 07:42:10;;;;;;;9.32;8.43;;;;;;;;;;10135531;28;20052;-67
2023/01/21 07:47:04;;;;;;;10.98;8.65;;;;;;;;;;10138840;28;20053;-67
2023/01/21 07:51:57;;;;;;;12.50;8.82;;;;;;;;;;10137474;28;20532;-67
2023/01/21 07:56:51;;;;;;;9.52;8.52;;;;;;;;;;10132111;28;20139;-66
2023/01/21 08:01:45;;;;;;;8.77;7.35;;;;;;;;;;10137672;28;20057;-66
2023/01/21 08:06:42;;;;;;;8.57;6.63;;;;;;;;;;10133397;28;20057;-66
2023/01/21 08:11:35;;;;;;;9.77;7.35;;;;;;;;;;10126400;28;20045;-65
2023/01/21 08:16:29;;;;;;;9.73;6.88;;;;;;;;;;10131886;28;20139;-66
2023/01/21 08:21:24;;;;;;;6.63;6.03;;;;;;;;;;10127955;28;20565;-65
2023/01/21 08:26:18;;;;;;;9.07;7.65;;;;;;;;;;10127114;28;20060;-66
2023/01/21 08:31:12;;;;;;;7.10;6.43;;;;;;;;;;10133837;28;20072;-64
2023/01/21 08:36:07;;;;;;;8.07;6.38;;;;;;;;;;10128379;28;20076;-65
2023/01/21 08:41:00;;;;;;;7.32;6.47;;;;;;;;;;10109658;28;20452;-65
2023/01/21 08:45:55;;;;;;;6.93;6.22;;;;;;;;;;10126010;28;20464;-65
2023/01/21 08:50:50;;;;;;;7.22;5.25;;;;;;;;;;10129594;28;20127;-65
2023/01/21 08:55:44;;;;;;;5.50;5.00;;;;;;;;;;10136917;28;20044;-65
2023/01/21 09:00:40;;;;;;;6.88;5.32;;;;;;;;;;10127563;28;20048;-66
2023/01/21 09:05:33;;;;;;;6.78;5.80;;;;;;;;;;10143733;28;20049;-69
2023/01/21 09:15:40;;;;;;;8.10;6.45;;;;;;;;;;10132930;28;20501;-70
2023/01/21 09:20:34;;;;;;;7.15;6.28;;;;;;;;;;10138795;28;20048;-71
2023/01/21 09:25:27;;;;;;;6.75;5.55;;;;;;;;;;10127351;28;20501;-70
2023/01/21 09:30:22;;;;;;;5.75;4.72;;;;;;;;;;10126041;28;20555;-70
2023/01/21 09:35:15;;;;;;;5.15;4.60;;;;;;;;;;10133029;28;20044;-70
2023/01/21 09:40:15;;;;;;;8.23;4.50;;;;;;;;;;10134184;28;20033;-70
2023/01/21 09:45:12;;;;;;;5.10;4.60;;;;;;;;;;10130741;28;20448;-70
2023/01/21 09:50:13;;;;;;;4.68;4.28;;;;;;;;;;10133045;28;20056;-71
2023/01/21 09:55:19;;;;;;;5.07;4.28;;;;;;;;;;10125551;28;20045;-71
2023/01/21 10:00:33;;;;;;;9.25;4.28;;;;;;;;;;10133212;28;20057;-71
2023/01/21 10:05:47;;;;;;;6.03;4.15;;;;;;;;;;10129076;28;20052;-69
2023/01/21 10:10:50;;;;;;;4.13;3.72;;;;;;;;;;10129853;28;20053;-72
2023/01/21 10:16:17;;;;;;;5.35;4.85;;;;;;;;;;10121992;28;20063;-72
2023/01/21 10:21:29;;;;;;;4.15;3.67;;;;;;;;;;10131600;28;20049;-72
2023/01/21 10:26:23;;;;;;;4.75;4.10;;;;;;;;;;10126671;28;20568;-70
2023/01/21 10:31:27;;;;;;;3.75;3.42;;;;;;;;;;10126567;28;20099;-70
2023/01/21 10:36:29;;;;;;;4.80;3.92;;;;;;;;;;10126794;28;20132;-73
2023/01/21 10:41:32;;;;;;;6.07;3.47;;;;;;;;;;10126261;28;20068;-70
2023/01/21 10:46:36;;;;;;;4.30;3.90;;;;;;;;;;10135552;28;20052;-70
2023/01/21 10:51:37;;;;;;;4.97;3.63;;;;;;;;;;10128447;28;20071;-70
2023/01/21 10:56:36;;;;;;;4.55;3.72;;;;;;;;;;10136339;28;20049;-67
2023/01/21 11:01:33;;;;;;;4.43;4.00;;;;;;;;;;10135382;28;20132;-68
2023/01/21 11:06:28;;;;;;;4.00;3.70;;;;;;;;;;10130001;28;20408;-68
2023/01/21 11:11:28;;;;;;;4.60;3.65;;;;;;;;;;10132605;28;20476;-70
2023/01/21 11:16:44;;;;;;;5.47;4.32;;;;;;;;;;10131512;28;20060;-68
2023/01/21 11:21:41;;;;;;;4.10;3.70;;;;;;;;;;10125438;28;20049;-69
2023/01/21 11:26:35;;;;;;;5.13;4.63;;;;;;;;;;10131315;28;20032;-68
2023/01/21 11:31:31;;;;;;;5.05;3.90;;;;;;;;;;10124956;28;20420;-68
2023/01/21 11:36:25;;;;;;;4.90;3.75;;;;;;;;;;10097646;28;20090;-67
2023/01/21 11:41:21;;;;;;;4.13;3.35;;;;;;;;;;10115329;28;20070;-68
2023/01/21 11:46:29;;;;;;;3.67;3.38;;;;;;;;;;10112507;28;20570;-68
2023/01/21 11:51:24;;;;;;;6.00;5.43;;;;;;;;;;10125441;28;20037;-68
2023/01/21 11:56:17;;;;;;;6.55;4.95;;;;;;;;;;10098606;28;21200;-67
2023/01/21 12:01:20;;;;;;;6.38;5.78;;;;;;;;;;10105850;28;20045;-69
2023/01/21 12:06:24;;;;;;;6.40;5.18;;;;;;;;;;10111499;28;20061;-66
2023/01/21 12:11:39;;;;;;;7.15;5.80;;;;;;;;;;10110457;28;20079;-68
2023/01/21 12:17:07;;;;;;;15.63;14.00;;;;;;;;;;10100130;28;20053;-68
2023/01/21 12:22:09;;;;;;;9.95;8.30;;;;;;;;;;10099269;28;20132;-68
2023/01/21 12:27:24;;;;;;;16.45;12.45;;;;;;;;;;10096736;28;20071;-66
2023/01/21 12:32:25;;;;;;;22.95;19.42;;;;;;;;;;10097969;28;20059;-67
2023/01/21 12:37:37;;;;;;;4.32;3.72;;;;;;;;;;10099396;28;20414;-67
2023/01/21 12:42:39;;;;;;;4.13;3.70;;;;;;;;;;10091760;28;20049;-68
2023/01/21 12:47:52;;;;;;;5.43;4.35;;;;;;;;;;10092879;28;20057;-67
2023/01/21 12:53:09;;;;;;;8.80;4.57;;;;;;;;;;10105001;28;20076;-68
2023/01/21 12:58:06;;;;;;;3.97;3.60;;;;;;;;;;10084343;28;20060;-66
2023/01/21 13:03:29;;;;;;;4.35;3.58;;;;;;;;;;10091935;28;20051;-66
2023/01/21 13:08:33;;;;;;;4.97;4.07;;;;;;;;;;10091805;28;20053;-66
2023/01/21 13:13:34;;;;;;;4.25;3.53;;;;;;;;;;10091571;28;20458;-65
2023/01/21 13:18:50;;;;;;;6.18;3.25;;;;;;;;;;10088190;28;20118;-65
2023/01/21 13:24:11;;;;;;;5.03;3.92;;;;;;;;;;10090281;28;20045;-65
2023/01/21 13:29:18;;;;;;;6.70;3.88;;;;;;;;;;10086894;28;20040;-65
2023/01/21 13:34:32;;;;;;;4.90;3.30;;;;;;;;;;10087965;28;20124;-65
2023/01/21 13:39:43;;;;;;;4.38;3.70;;;;;;;;;;10085621;28;20524;-66
2023/01/21 13:45:06;;;;;;;4.38;3.97;;;;;;;;;;10102180;28;20409;-66
2023/01/21 13:50:07;;;;;;;5.20;4.35;;;;;;;;;;10096358;28;20124;-66
2023/01/21 13:55:46;;;;;;;4.78;3.90;;;;;;;;;;10099862;28;20083;-68
2023/01/21 14:00:48;;;;;;;4.53;3.70;;;;;;;;;;10097885;28;20115;-67
2023/01/21 14:05:48;;;;;;;6.57;5.93;;;;;;;;;;10099897;28;20494;-67
2023/01/21 14:10:47;;;;;;;11.82;7.45;;;;;;;;;;10090094;28;20075;-66
2023/01/21 14:15:59;;;;;;;6.68;5.55;;;;;;;;;;10085237;28;20053;-68
2023/01/21 14:21:19;;;;;;;4.72;4.28;;;;;;;;;;10092532;28;20052;-67
2023/01/21 14:26:15;;;;;;;6.25;4.10;;;;;;;;;;10082219;28;20052;-67
2023/01/21 14:31:32;;;;;;;7.25;4.35;;;;;;;;;;10092436;28;20128;-67
2023/01/21 14:36:35;;;;;;;5.22;4.65;;;;;;;;;;10091463;28;20111;-67
2023/01/21 14:42:13;;;;;;;5.10;4.45;;;;;;;;;;10095082;28;20061;-66
2023/01/21 14:47:29;;;;;;;7.07;6.15;;;;;;;;;;10087388;28;20057;-66
2023/01/21 14:52:30;;;;;;;9.13;6.30;;;;;;;;;;10083436;28;20605;-66
2023/01/21 14:57:27;;;;;;;7.43;4.35;;;;;;;;;;10093787;28;20557;-66
2023/01/21 15:02:45;;;;;;;7.35;6.53;;;;;;;;;;10091967;28;20041;-66
2023/01/21 15:07:41;;;;;;;9.18;5.55;;;;;;;;;;10083863;28;20041;-66
2023/01/21 15:12:34;;;;;;;9.55;7.05;;;;;;;;;;10087707;28;20043;-67
2023/01/21 15:17:52;;;;;;;6.25;4.55;;;;;;;;;;10090531;28;20506;-66
2023/01/21 15:23:20;;;;;;;5.40;4.40;;;;;;;;;;10080996;28;20133;-67
2023/01/21 15:28:43;;;;;;;7.30;4.97;;;;;;;;;;10096259;28;20131;-67
2023/01/21 15:33:44;;;;;;;6.75;5.72;;;;;;;;;;10095435;28;20051;-67
2023/01/21 15:38:40;;;;;;;12.20;10.05;;;;;;;;;;10098432;28;20515;-67
2023/01/21 15:44:06;;;;;;;11.48;8.80;;;;;;;;;;10099833;28;20064;-67
2023/01/21 15:49:21;;;;;;;12.30;8.18;;;;;;;;;;10100858;28;20048;-67
2023/01/21 15:54:47;;;;;;;12.15;9.27;;;;;;;;;;10100756;28;20064;-67
2023/01/21 16:00:20;;;;;;;11.48;9.15;;;;;;;;;;10102888;28;20091;-67
2023/01/21 16:05:20;;;;;;;12.02;8.38;;;;;;;;;;10100121;28;20059;-66
2023/01/21 16:10:19;;;;;;;11.02;9.07;;;;;;;;;;10101045;28;20136;-67
2023/01/21 16:15:13;;;;;;;13.77;8.48;;;;;;;;;;10096029;28;20133;-67
2023/01/21 16:20:10;;;;;;;15.25;10.15;;;;;;;;;;10092738;28;20516;-66
2023/01/21 16:25:08;;;;;;;12.73;9.73;;;;;;;;;;10094905;28;20110;-66
2023/01/21 16:30:11;;;;;;;18.70;14.00;;;;;;;;;;10093519;28;20051;-66
2023/01/21 16:35:05;;;;;;;26.00;16.85;;;;;;;;;;10096288;28;20042;-64
2023/01/21 16:40:18;;;;;;;25.63;14.82;;;;;;;;;;10093475;28;20060;-65
2023/01/21 16:45:21;;;;;;;21.27;14.80;;;;;;;;;;10093873;28;20096;-66
2023/01/21 16:50:22;;;;;;;13.52;11.48;;;;;;;;;;10115052;28;20045;-67
2023/01/21 16:55:26;;;;;;;27.02;16.15;;;;;;;;;;10082506;28;20711;-65
2023/01/21 17:00:30;;;;;;;18.05;13.57;;;;;;;;;;10085205;28;20053;-66
2023/01/21 17:05:26;;;;;;;17.55;13.15;;;;;;;;;;10092279;28;20095;-66
2023/01/21 17:10:31;;;;;;;14.77;10.07;;;;;;;;;;10092926;28;20375;-68
2023/01/21 17:15:34;;;;;;;10.93;9.38;;;;;;;;;;10095752;28;20053;-65
2023/01/21 17:20:40;;;;;;;12.32;9.93;;;;;;;;;;10088041;28;20081;-65
2023/01/21 17:25:34;;;;;;;14.30;10.75;;;;;;;;;;10094421;28;20056;-66
2023/01/21 17:30:31;;;;;;;19.63;12.32;;;;;;;;;;10092754;28;20448;-65
2023/01/21 17:35:27;;;;;;;20.63;15.27;;;;;;;;;;10091673;28;20489;-66
2023/01/21 17:40:52;;;;;;;29.45;22.40;;;;;;;;;;10090491;28;20049;-66
2023/01/21 17:45:46;;;;;;;26.27;21.95;;;;;;;;;;10095320;28;20533;-66
2023/01/21 17:50:45;;;;;;;44.15;32.65;;;;;;;;;;10083884;28;20057;-66
2023/01/21 17:55:39;;;;;;;34.03;21.08;;;;;;;;;;10083529;28;20068;-66
2023/01/21 18:00:45;;;;;;;15.70;12.73;;;;;;;;;;10089935;28;20136;-67
2023/01/21 18:05:39;;;;;;;17.80;11.18;;;;;;;;;;10102904;28;20041;-66
2023/01/21 18:10:33;;;;;;;27.42;23.50;;;;;;;;;;10093665;28;20068;-66
2023/01/21 18:15:27;;;;;;;30.23;24.02;;;;;;;;;;10097313;28;20059;-66
2023/01/21 18:20:23;;;;;;;26.77;19.30;;;;;;;;;;10092770;28;20053;-66
2023/01/21 18:25:17;;;;;;;32.10;25.10;;;;;;;;;;10092694;28;20065;-66
2023/01/21 18:30:23;;;;;;;29.48;19.27;;;;;;;;;;10078810;28;20099;-66
2023/01/21 18:35:20;;;;;;;24.17;18.30;;;;;;;;;;10084529;28;20052;-66
2023/01/21 18:40:17;;;;;;;21.88;16.83;;;;;;;;;;10084999;28;20053;-68
2023/01/21 18:45:29;;;;;;;26.05;19.13;;;;;;;;;;10117912;28;20076;-68
2023/01/21 18:50:25;;;;;;;18.92;14.52;;;;;;;;;;10102394;28;20057;-67
2023/01/21 18:55:19;;;;;;;17.67;14.55;;;;;;;;;;10090560;28;20069;-68
2023/01/21 19:00:21;;;;;;;17.45;14.77;;;;;;;;;;10101145;28;20049;-68
2023/01/21 19:05:15;;;;;;;22.08;17.13;;;;;;;;;;10089645;28;20052;-67
2023/01/21 19:10:14;;;;;;;19.55;14.30;;;;;;;;;;10097709;28;20045;-68
2023/01/21 19:15:19;;;;;;;16.52;13.73;;;;;;;;;;10092457;28;20118;-68
2023/01/21 19:20:23;;;;;;;23.73;16.70;;;;;;;;;;10101452;28;20045;-68
2023/01/21 19:25:18;;;;;;;50.72;32.22;;;;;;;;;;10098135;28;20046;-69
2023/01/21 19:30:22;;;;;;;60.13;43.10;;;;;;;;;;10102375;28;20045;-70
2023/01/21 19:35:17;;;;;;;65.70;43.03;;;;;;;;;;10098505;28;20080;-68
2023/01/21 19:40:18;;;;;;;71.22;43.95;;;;;;;;;;10101318;28;20041;-69
2023/01/21 19:45:12;;;;;;;42.08;25.08;;;;;;;;;;10099035;28;20100;-68
2023/01/21 19:50:26;;;;;;;18.63;12.90;;;;;;;;;;10098661;28;20051;-69
2023/01/21 19:55:24;;;;;;;21.75;16.67;;;;;;;;;;10095487;28;20053;-67
2023/01/21 20:00:30;;;;;;;16.08;12.68;;;;;;;;;;10099125;28;20048;-67
2023/01/21 20:05:25;;;;;;;16.02;12.50;;;;;;;;;;10095717;28;20044;-68
2023/01/21 20:10:38;;;;;;;14.15;12.45;;;;;;;;;;10098390;28;20509;-68
2023/01/21 20:15:33;;;;;;;16.52;9.60;;;;;;;;;;10099751;28;20046;-67
2023/01/21 20:20:29;;;;;;;13.68;10.75;;;;;;;;;;10098775;28;20049;-68
2023/01/21 20:25:43;;;;;;;13.82;11.32;;;;;;;;;;10098550;28;20049;-70
2023/01/21 20:30:37;;;;;;;15.88;12.43;;;;;;;;;;10098618;28;20117;-69
2023/01/21 20:35:30;;;;;;;11.52;9.82;;;;;;;;;;10093772;28;20049;-68
2023/01/21 20:40:26;;;;;;;12.40;8.10;;;;;;;;;;10107961;28;20100;-69
2023/01/21 20:45:28;;;;;;;7.68;6.88;;;;;;;;;;10093185;28;20057;-69
2023/01/21 20:50:24;;;;;;;9.13;7.00;;;;;;;;;;10087136;28;20045;-68
2023/01/21 20:55:17;;;;;;;10.43;6.38;;;;;;;;;;10089291;28;20059;-68
2023/01/21 21:00:24;;;;;;;13.50;9.88;;;;;;;;;;10094555;28;20053;-69
2023/01/21 21:05:58;;;;;;;8.93;6.95;;;;;;;;;;10094726;28;20071;-68
2023/01/21 21:11:14;;;;;;;9.20;8.27;;;;;;;;;;10095211;28;20041;-69
2023/01/21 21:16:22;;;;;;;39.30;27.05;;;;;;;;;;10091815;28;20056;-69
2023/01/21 21:21:16;;;;;;;23.98;16.23;;;;;;;;;;10099818;28;20087;-68
2023/01/21 21:26:16;;;;;;;26.90;15.75;;;;;;;;;;10098642;28;20073;-68
2023/01/21 21:31:14;;;;;;;19.20;13.00;;;;;;;;;;10113174;28;20036;-68
2023/01/21 21:36:19;;;;;;;27.92;20.50;;;;;;;;;;10097429;28;20107;-68
2023/01/21 21:51:37;;;;;;;12.27;10.23;;;;;;;;;;10090764;28;20413;-69
2023/01/21 21:56:31;;;;;;;18.77;10.52;;;;;;;;;;10090910;28;20075;-68
2023/01/21 22:01:27;;;;;;;15.02;11.32;;;;;;;;;;10090417;28;20151;-68
2023/01/21 22:06:22;;;;;;;14.02;11.82;;;;;;;;;;10087829;28;20049;-68
2023/01/21 22:11:17;;;;;;;16.70;12.68;;;;;;;;;;10084800;28;20055;-69
2023/01/21 22:16:13;;;;;;;12.27;10.80;;;;;;;;;;10089461;28;20048;-68
2023/01/21 22:21:10;;;;;;;21.60;15.00;;;;;;;;;;10085507;28;20045;-68
2023/01/21 22:26:05;;;;;;;49.67;28.40;;;;;;;;;;10103543;28;20547;-68
2023/01/21 22:31:07;;;;;;;39.22;24.10;;;;;;;;;;10088550;28;20045;-68
2023/01/21 22:36:06;;;;;;;10.50;8.57;;;;;;;;;;10077313;28;20067;-67
2023/01/21 22:40:58;;;;;;;13.65;8.85;;;;;;;;;;10103493;28;20409;-68
2023/01/21 22:45:54;;;;;;;10.07;7.15;;;;;;;;;;10090996;28;20085;-67
2023/01/21 22:51:11;;;;;;;14.05;10.43;;;;;;;;;;10087490;28;20052;-68
2023/01/21 22:56:06;;;;;;;9.38;8.18;;;;;;;;;;10086707;28;20053;-67
2023/01/21 23:01:00;;;;;;;10.68;7.40;;;;;;;;;;10099952;28;20054;-67
2023/01/21 23:05:56;;;;;;;8.90;8.02;;;;;;;;;;10080719;28;20046;-68
2023/01/21 23:10:58;;;;;;;9.38;8.43;;;;;;;;;;10072958;28;20095;-67
2023/01/21 23:15:52;;;;;;;9.20;6.88;;;;;;;;;;10087558;28;20471;-67
2023/01/21 23:20:46;;;;;;;8.52;6.75;;;;;;;;;;10087692;28;20045;-68
2023/01/21 23:25:41;;;;;;;8.98;7.93;;;;;;;;;;10079597;28;20513;-68
2023/01/21 23:30:35;;;;;;;8.85;6.25;;;;;;;;;;10082071;28;20048;-68
2023/01/21 23:35:28;;;;;;;7.72;6.93;;;;;;;;;;10089863;28;20402;-67
2023/01/21 23:40:21;;;;;;;8.68;7.30;;;;;;;;;;10077535;28;20056;-68
2023/01/21 23:45:15;;;;;;;10.10;7.57;;;;;;;;;;10093131;28;20063;-68
2023/01/21 23:50:11;;;;;;;8.85;7.60;;;;;;;;;;10093710;28;20120;-67
2023/01/21 23:55:06;;;;;;;9.90;7.93;;;;;;;;;;10087792;28;20040;-67
2023/01/21 23:59:59;;;;;;;8.20;7.18;;;;;;;;;;10104459;28;20084;-68
